Avon Lake, OH

12:30 AM EST on November 28, 2014 (GMT -0500)
KOHAVONL7 | Change Station
CLOSE
Current Station
Personal Weather Station
Location: Avon Lake, OH
Elevation: 607 ft
Nearby Weather Stations

Elev 607 ft 41.51 °N, 82.01 °W | Updated 6 seconds ago

Overcast
Overcast
24.0 °F
Feels Like 16 °F
N
7.0
Wind Variable Wind from NNW
Gusts 19.0 mph

Today
High -- | Low -- °F
--% Chance of Precip.
Yesterday
High -- | Low -- °F
Precip. -- in
7:31 AM 5:00 PM
Waxing Crescent, 36% visible
Pressure 30.31 in
Visibility 10.0 miles
Clouds Scattered Clouds 2900 ft
Mostly Cloudy 3800 ft
Overcast 6000 ft
Windchill 16 °F
Dew Point 18 °F
Humidity 76%
Rainfall 0.00 in
Snow Depth Not available.
UV 0 out of 12
Pollen .10 out of 12
Air Quality Not available.
Flu Activity Not available.
METAR KCLE 280451Z 31008KT 10SM SCT029 BKN038 OVC060 M02/M07 A3029 RMK AO2 SNE28 SLP264 P0000 T10221067 400061028 $

More Conditions Fewer Conditions

Pressure 30.31 in
Visibility 10.0 miles
Clouds Scattered Clouds 2900 ft
Mostly Cloudy 3800 ft
Overcast 6000 ft
Windchill 16 °F
Dew Point 18 °F
Humidity 76%
Rainfall 0.00 in
Snow Depth Not available.
UV 0 out of 12
Pollen .10 out of 12
Air Quality Not available.
Flu Activity Not available.
METAR KCLE 280451Z 31008KT 10SM SCT029 BKN038 OVC060 M02/M07 A3029 RMK AO2 SNE28 SLP264 P0000 T10221067 400061028 $

More Conditions Fewer Conditions

10-Day Weather Forecast

Almanac

Astronomy

Nov. 28, 2014 Rise Set
Actual Time
Civil Twilight
Nautical Twilight
Astronomical Twilight
Moon
Length of Visible Light
Length of Day
Tomorrow will be .
, % of the Moon is Illuminated

Today's Extremes

State Highs State Lows

Community

WunderPhotos

Upload Photos

1,774,195 photos uploaded!

WunderBlogs® & News

Nearby

Air Quality

  Air Quality AQ Index Pollutant
Not available.

Snow Depth

Station Depth Elevation

Earthquake Activity

City Distance Mag. Time & Date
Minimum magnitude displayed is 2.5.

Coastal Water Temperatures

Place Temperature

Nearby Weather Stations